Time;durP1;ratioP1;P1;durP2;ratioP2;P2;SDS_P1;SDS_P2;PMS_P1;PMS_P2;Temp;Humidity;BMP_temperature;BMP_pressure;BME280_temperature;BME280_humidity;BME280_pressure;Samples;Min_cycle;Max_cycle;Signal;HPM_P1;HPM_P2
2023/10/29 00:01:08;;;;;;;4.90;3.97;;;;;;;5.46;100.00;98599.22;6101292;23;20172;-83
2023/10/29 00:03:42;;;;;;;5.60;4.10;;;;;;;5.40;100.00;98586.81;6125099;23;20156;-82
2023/10/29 00:06:16;;;;;;;5.03;4.17;;;;;;;5.36;100.00;98595.41;6103045;23;20237;-85
2023/10/29 00:08:45;;;;;;;4.57;4.17;;;;;;;5.31;100.00;98588.88;6102359;23;20191;-83
2023/10/29 00:11:14;;;;;;;4.30;3.90;;;;;;;5.26;100.00;98590.53;6102633;23;20682;-82
2023/10/29 00:13:45;;;;;;;4.73;4.10;;;;;;;5.22;100.00;98589.34;6102642;23;20172;-84
2023/10/29 00:16:17;;;;;;;5.83;4.43;;;;;;;5.18;100.00;98588.13;6103279;23;20181;-83
2023/10/29 00:18:45;;;;;;;6.70;4.20;;;;;;;5.15;100.00;98580.56;6126913;23;20174;-83
2023/10/29 00:21:12;;;;;;;4.40;4.00;;;;;;;5.13;100.00;98580.78;6102328;23;20168;-85
2023/10/29 00:23:40;;;;;;;6.33;4.23;;;;;;;5.05;100.00;98591.63;6102112;23;20191;-84
2023/10/29 00:26:12;;;;;;;5.20;4.43;;;;;;;4.98;100.00;98593.50;6102750;23;20275;-84
2023/10/29 00:28:45;;;;;;;5.47;4.10;;;;;;;4.95;100.00;98591.25;6126777;23;20188;-85
2023/10/29 00:31:14;;;;;;;4.47;4.07;;;;;;;4.95;100.00;98593.91;6102924;23;20708;-83
2023/10/29 00:33:43;;;;;;;4.70;3.70;;;;;;;4.91;100.00;98581.25;6103142;23;20175;-84
2023/10/29 00:36:20;;;;;;;5.17;3.97;;;;;;;4.86;100.00;98592.50;6082288;23;20167;-86
2023/10/29 00:38:55;;;;;;;4.23;3.83;;;;;;;4.83;100.00;98596.41;6080729;23;20715;-82
2023/10/29 00:41:30;;;;;;;4.30;3.83;;;;;;;4.85;100.00;98593.53;6079830;23;20247;-84
2023/10/29 00:43:58;;;;;;;4.33;3.90;;;;;;;4.83;100.00;98600.88;6103851;23;20627;-84
2023/10/29 00:46:32;;;;;;;5.13;4.00;;;;;;;4.81;100.00;98605.56;6103131;23;20172;-84
2023/10/29 00:49:02;;;;;;;3.93;3.40;;;;;;;4.75;100.00;98595.81;6103001;23;20191;-83
2023/10/29 00:51:32;;;;;;;6.07;3.60;;;;;;;4.73;100.00;98608.44;6102808;23;20202;-85
2023/10/29 00:54:14;;;;;;;4.13;3.60;;;;;;;4.74;100.00;98610.09;6127103;23;20196;-83
2023/10/29 00:56:44;;;;;;;4.57;3.70;;;;;;;4.76;100.00;98610.69;6102764;23;20181;-83
2023/10/29 00:59:13;;;;;;;4.53;3.57;;;;;;;4.77;100.00;98607.00;6101170;23;20201;-84
2023/10/29 01:01:44;;;;;;;3.70;3.40;;;;;;;4.77;100.00;98602.53;6103706;23;20161;-84
2023/10/29 01:04:14;;;;;;;4.10;3.70;;;;;;;4.78;100.00;98590.88;6127059;23;20168;-84
2023/10/29 01:06:46;;;;;;;4.23;3.83;;;;;;;4.76;100.00;98592.91;6102627;23;20258;-83
2023/10/29 01:09:14;;;;;;;4.20;3.80;;;;;;;4.71;100.00;98591.94;6102468;23;20199;-85
2023/10/29 01:11:44;;;;;;;4.80;3.90;;;;;;;4.59;100.00;98580.31;6079521;23;20177;-83
2023/10/29 01:14:14;;;;;;;4.17;3.60;;;;;;;4.55;100.00;98573.78;6103289;23;20164;-86
2023/10/29 01:16:48;;;;;;;4.83;3.90;;;;;;;4.52;100.00;98576.88;6103746;23;20188;-85
2023/10/29 01:19:19;;;;;;;5.00;4.10;;;;;;;4.53;100.00;98567.88;6126893;23;20171;-87
2023/10/29 01:21:49;;;;;;;4.10;3.50;;;;;;;4.53;100.00;98568.69;6102335;23;20179;-85
2023/10/29 01:24:17;;;;;;;4.23;3.47;;;;;;;4.50;100.00;98578.91;6103053;23;20202;-87
2023/10/29 01:26:44;;;;;;;4.57;3.97;;;;;;;4.42;100.00;98585.25;6102880;23;20171;-83
2023/10/29 01:29:16;;;;;;;4.43;3.77;;;;;;;4.37;100.00;98591.16;6103537;23;20664;-85
2023/10/29 01:31:51;;;;;;;5.83;4.63;;;;;;;4.35;100.00;98587.06;6126687;23;20234;-84
2023/10/29 01:34:20;;;;;;;5.07;4.50;;;;;;;4.35;100.00;98592.38;6103264;23;20218;-84
2023/10/29 01:36:52;;;;;;;4.80;4.30;;;;;;;4.32;100.00;98598.09;6127016;23;20171;-84
2023/10/29 01:39:24;;;;;;;18.07;10.00;;;;;;;4.25;100.00;98592.78;6079414;23;20199;-82
2023/10/29 01:41:55;;;;;;;13.43;9.67;;;;;;;4.23;100.00;98604.63;6126409;23;20164;-83
2023/10/29 01:44:24;;;;;;;13.80;8.60;;;;;;;4.17;100.00;98602.78;6080066;23;20243;-87
2023/10/29 01:46:53;;;;;;;10.80;6.93;;;;;;;4.12;100.00;98592.78;6103005;23;20175;-87
2023/10/29 01:49:23;;;;;;;10.00;7.00;;;;;;;4.04;100.00;98593.00;6102981;23;20189;-85
2023/10/29 01:51:55;;;;;;;8.53;6.20;;;;;;;3.99;100.00;98593.59;6103633;23;20248;-89
2023/10/29 01:54:26;;;;;;;9.57;6.80;;;;;;;3.98;100.00;98596.44;6128341;23;20227;-87
2023/10/29 01:56:55;;;;;;;8.97;6.60;;;;;;;3.95;100.00;98596.84;6078661;23;20173;-84
2023/10/29 01:59:23;;;;;;;8.13;6.13;;;;;;;3.92;100.00;98589.28;6102595;23;20195;-84
2023/10/29 02:02:02;;;;;;;10.70;6.47;;;;;;;3.86;100.00;98598.06;6079372;23;20203;-85
2023/10/29 02:04:32;;;;;;;7.17;5.37;;;;;;;3.86;100.00;98611.31;6079179;23;20171;-85
2023/10/29 02:07:06;;;;;;;6.80;5.57;;;;;;;3.84;100.00;98618.63;6080130;23;20299;-84
2023/10/29 02:09:35;;;;;;;6.60;5.50;;;;;;;3.75;100.00;98610.06;6126998;23;20211;-86
2023/10/29 02:12:07;;;;;;;7.70;6.10;;;;;;;3.70;100.00;98601.06;6126445;23;20195;-86
2023/10/29 02:14:36;;;;;;;9.43;6.97;;;;;;;3.65;100.00;98598.22;6102443;23;20182;-86
2023/10/29 02:17:05;;;;;;;9.70;7.10;;;;;;;3.63;100.00;98610.84;6102771;23;20184;-83
2023/10/29 02:19:45;;;;;;;7.00;5.90;;;;;;;3.61;100.00;98602.28;6126912;23;20176;-88
2023/10/29 02:22:14;;;;;;;8.23;6.60;;;;;;;3.61;100.00;98603.09;6128282;23;20148;-88
2023/10/29 02:24:47;;;;;;;9.40;6.60;;;;;;;3.61;100.00;98613.69;6103712;23;20164;-87
2023/10/29 02:27:15;;;;;;;8.80;6.60;;;;;;;3.55;100.00;98611.84;6102485;23;20168;-86
2023/10/29 02:29:47;;;;;;;7.03;5.73;;;;;;;3.49;100.00;98604.69;6080567;23;20187;-86
2023/10/29 02:32:20;;;;;;;9.13;6.50;;;;;;;3.46;100.00;98595.31;6079684;23;20177;-85
2023/10/29 02:34:49;;;;;;;8.93;6.30;;;;;;;3.42;100.00;98591.44;6079342;23;20167;-88
2023/10/29 02:37:17;;;;;;;9.53;7.47;;;;;;;3.47;100.00;98598.78;6102554;23;20195;-88
2023/10/29 02:39:51;;;;;;;9.50;7.50;;;;;;;3.48;100.00;98597.78;6080400;23;20171;-85
2023/10/29 02:42:25;;;;;;;8.97;7.43;;;;;;;3.47;100.00;98604.06;6079760;23;20172;-86
2023/10/29 02:44:53;;;;;;;10.50;7.67;;;;;;;3.48;100.00;98595.94;6079236;23;20176;-85
2023/10/29 02:47:23;;;;;;;8.00;6.67;;;;;;;3.50;100.00;98599.19;6079057;23;20193;-87
2023/10/29 02:49:53;;;;;;;8.17;6.30;;;;;;;3.52;100.00;98588.41;6080207;23;20662;-85
2023/10/29 02:52:24;;;;;;;6.97;5.83;;;;;;;3.52;100.00;98599.81;6126535;23;20202;-87
2023/10/29 02:54:52;;;;;;;7.03;5.97;;;;;;;3.47;100.00;98599.59;6126892;23;20633;-86
2023/10/29 02:57:25;;;;;;;7.33;6.23;;;;;;;3.46;100.00;98597.97;6103528;23;20163;-88
2023/10/29 02:59:53;;;;;;;5.73;5.10;;;;;;;3.42;100.00;98599.38;6078949;23;20199;-87
2023/10/29 03:02:23;;;;;;;6.33;5.37;;;;;;;3.38;100.00;98606.09;6125830;23;20191;-86
2023/10/29 03:04:57;;;;;;;5.90;5.30;;;;;;;3.37;100.00;98615.03;6103788;23;20167;-84
2023/10/29 03:07:28;;;;;;;5.30;4.80;;;;;;;3.36;100.00;98615.25;6102589;23;20199;-86
2023/10/29 03:09:56;;;;;;;5.07;4.57;;;;;;;3.33;100.00;98605.84;6126585;23;20214;-85
2023/10/29 03:12:24;;;;;;;5.63;4.63;;;;;;;3.37;100.00;98603.63;6102277;23;20611;-87
2023/10/29 03:15:02;;;;;;;5.00;4.53;;;;;;;3.35;100.00;98613.63;6126365;23;20554;-86
2023/10/29 03:17:34;;;;;;;4.93;4.40;;;;;;;3.36;100.00;98623.19;6126636;23;20167;-87
2023/10/29 03:20:03;;;;;;;4.90;4.50;;;;;;;3.25;100.00;98621.94;6102956;23;20240;-88
2023/10/29 03:22:31;;;;;;;5.60;4.67;;;;;;;3.23;100.00;98615.19;6101195;23;20172;-85
2023/10/29 03:25:02;;;;;;;4.87;4.37;;;;;;;3.23;100.00;98610.69;6103224;23;20164;-87
2023/10/29 03:27:35;;;;;;;7.13;5.43;;;;;;;3.21;100.00;98604.81;6126500;23;20258;-88
2023/10/29 03:30:05;;;;;;;7.33;6.10;;;;;;;3.20;100.00;98611.09;6101953;23;20705;-90
2023/10/29 03:32:36;;;;;;;6.60;5.90;;;;;;;3.22;100.00;98602.97;6127027;23;20211;-89
2023/10/29 03:35:08;;;;;;;7.33;6.47;;;;;;;3.19;100.00;98601.53;6078874;23;20183;-87
2023/10/29 03:37:38;;;;;;;6.70;6.07;;;;;;;3.19;100.00;98584.81;6102567;23;20183;-87
2023/10/29 03:40:09;;;;;;;6.73;6.13;;;;;;;3.18;100.00;98591.94;6104125;23;20163;-90
2023/10/29 03:42:47;;;;;;;6.60;6.00;;;;;;;3.16;100.00;98583.41;6107037;23;20140;-89
2023/10/29 03:45:16;;;;;;;6.60;5.60;;;;;;;3.15;100.00;98583.59;6128955;23;20255;-90
2023/10/29 03:47:44;;;;;;;5.63;5.13;;;;;;;3.15;100.00;98583.59;6104612;23;20164;-86
2023/10/29 03:50:16;;;;;;;7.43;5.17;;;;;;;3.14;100.00;98579.31;6128480;23;20192;-88
2023/10/29 03:52:44;;;;;;;5.80;5.20;;;;;;;3.08;100.00;98579.06;6128259;23;20166;-86
2023/10/29 03:55:15;;;;;;;6.30;5.70;;;;;;;3.06;100.00;98583.78;6104729;23;20259;-88
2023/10/29 03:57:43;;;;;;;7.07;5.70;;;;;;;3.03;100.00;98589.44;6104497;23;20215;-85
2023/10/29 04:00:14;;;;;;;7.63;6.40;;;;;;;3.03;100.00;98593.94;6081376;23;20167;-87
2023/10/29 04:02:42;;;;;;;7.67;5.80;;;;;;;2.95;100.00;98599.38;6129677;23;20160;-87
2023/10/29 04:05:13;;;;;;;6.20;5.60;;;;;;;2.94;100.00;98598.56;6128362;23;20180;-86
2023/10/29 04:08:06;;;;;;;5.10;4.60;;;;;;;2.90;100.00;98589.38;6130238;23;20282;-88
2023/10/29 04:10:35;;;;;;;7.67;6.67;;;;;;;2.93;100.00;98598.78;6128145;23;20259;-88
2023/10/29 04:13:08;;;;;;;6.73;6.03;;;;;;;2.89;100.00;98597.53;6104694;23;20167;-85
2023/10/29 04:15:45;;;;;;;5.90;5.30;;;;;;;2.84;100.00;98590.19;6128611;23;20156;-90
2023/10/29 04:18:24;;;;;;;5.63;5.13;;;;;;;2.82;100.00;98601.94;6129839;23;20178;-91
2023/10/29 04:21:09;;;;;;;5.27;4.77;;;;;;;2.79;100.00;98603.16;6129872;23;20258;-88
2023/10/29 04:23:40;;;;;;;4.97;4.43;;;;;;;2.75;100.00;98596.63;6082426;23;20218;-89
2023/10/29 04:26:20;;;;;;;5.13;4.50;;;;;;;2.80;100.00;98596.84;6129950;23;20231;-88
2023/10/29 04:28:50;;;;;;;6.20;4.40;;;;;;;2.75;100.00;98593.19;6128184;23;20308;-88
2023/10/29 04:31:18;;;;;;;4.47;4.07;;;;;;;2.69;100.00;98596.59;6104226;23;20200;-88
2023/10/29 04:33:48;;;;;;;4.40;3.93;;;;;;;2.71;100.00;98608.59;6080632;23;20172;-89
2023/10/29 04:36:25;;;;;;;4.50;3.97;;;;;;;2.70;100.00;98608.81;6105549;23;20160;-90
2023/10/29 04:38:53;;;;;;;4.50;4.10;;;;;;;2.75;100.00;98607.22;6105221;23;20163;-88
2023/10/29 04:41:21;;;;;;;4.03;3.73;;;;;;;2.78;100.00;98598.06;6080798;23;20250;-86
2023/10/29 04:43:51;;;;;;;4.53;3.97;;;;;;;2.83;100.00;98606.22;6104741;23;20250;-89
2023/10/29 04:46:19;;;;;;;5.00;4.20;;;;;;;2.87;100.00;98613.59;6080655;23;20175;-89
2023/10/29 04:48:46;;;;;;;5.10;4.20;;;;;;;2.95;100.00;98612.59;6080436;23;20180;-88
2023/10/29 04:51:20;;;;;;;4.90;4.40;;;;;;;3.02;100.00;98608.19;6104683;23;20270;-88
2023/10/29 04:53:49;;;;;;;4.70;4.20;;;;;;;3.05;100.00;98605.13;6081402;23;20199;-87
2023/10/29 04:56:18;;;;;;;4.63;4.23;;;;;;;3.10;100.00;98594.78;6103909;23;20175;-89
2023/10/29 04:58:48;;;;;;;5.73;4.37;;;;;;;3.13;100.00;98591.72;6128526;23;20168;-89
2023/10/29 05:01:18;;;;;;;4.87;4.47;;;;;;;3.21;100.00;98583.63;6128071;23;20223;-87
2023/10/29 05:03:46;;;;;;;4.93;4.43;;;;;;;3.25;100.00;98592.81;6104065;23;20162;-88
2023/10/29 05:06:20;;;;;;;4.97;4.40;;;;;;;3.30;100.00;98590.38;6103553;23;20251;-90
2023/10/29 05:08:49;;;;;;;5.53;4.40;;;;;;;3.33;100.00;98582.03;6080666;23;20165;-87
2023/10/29 05:11:17;;;;;;;4.70;4.20;;;;;;;3.39;100.00;98588.38;6080354;23;20199;-89
2023/10/29 05:13:48;;;;;;;6.33;4.57;;;;;;;3.47;100.00;98588.19;6104040;23;20642;-89
2023/10/29 05:16:19;;;;;;;6.10;5.33;;;;;;;3.50;100.00;98575.34;6127573;23;20247;-88
2023/10/29 05:18:47;;;;;;;6.63;4.70;;;;;;;3.57;100.00;98580.69;6127811;23;20653;-88
2023/10/29 05:21:20;;;;;;;7.93;5.63;;;;;;;3.68;100.00;98574.00;6104650;23;20617;-89
2023/10/29 05:23:49;;;;;;;10.13;5.57;;;;;;;3.71;100.00;98582.34;6103384;23;20200;-87
2023/10/29 05:26:22;;;;;;;12.37;5.90;;;;;;;3.81;100.00;98582.78;6103688;23;20215;-90
2023/10/29 05:28:53;;;;;;;12.03;5.53;;;;;;;3.87;100.00;98587.25;6080512;23;20255;-89
2023/10/29 05:31:22;;;;;;;8.20;5.87;;;;;;;3.94;100.00;98588.09;6103588;23;20187;-89
2023/10/29 05:33:55;;;;;;;6.90;5.87;;;;;;;3.99;100.00;98590.94;6081468;23;20175;-86
2023/10/29 05:36:27;;;;;;;8.43;6.03;;;;;;;4.13;100.00;98609.50;6104951;23;20163;-87
2023/10/29 05:38:56;;;;;;;12.30;6.07;;;;;;;4.22;100.00;98611.75;6080073;23;20250;-85
2023/10/29 05:41:25;;;;;;;17.30;6.20;;;;;;;4.29;100.00;98617.06;6103626;23;20172;-86
2023/10/29 05:43:52;;;;;;;12.63;6.00;;;;;;;4.32;100.00;98606.03;6103264;23;20182;-87
2023/10/29 05:46:22;;;;;;;10.10;6.47;;;;;;;4.42;100.00;98606.47;6079838;23;20172;-86
2023/10/29 05:48:52;;;;;;;11.80;6.63;;;;;;;4.50;100.00;98605.41;6080858;23;20168;-87
2023/10/29 05:51:26;;;;;;;11.60;6.30;;;;;;;4.58;100.00;98611.31;6103003;23;20194;-86
2023/10/29 05:53:56;;;;;;;14.20;8.23;;;;;;;4.60;100.00;98611.94;6102988;23;20168;-86
2023/10/29 05:56:24;;;;;;;17.30;8.00;;;;;;;4.62;100.00;98615.19;6126782;23;20178;-87
2023/10/29 05:58:55;;;;;;;15.80;9.93;;;;;;;4.66;100.00;98613.78;6078713;23;20172;-88
2023/10/29 06:01:25;;;;;;;14.40;10.00;;;;;;;4.76;100.00;98613.34;6103127;23;20160;-85
2023/10/29 06:03:55;;;;;;;26.40;10.10;;;;;;;4.84;100.00;98611.31;6126614;23;20175;-85
2023/10/29 06:06:24;;;;;;;17.30;9.73;;;;;;;4.94;100.00;98615.38;6126710;23;20206;-87
2023/10/29 06:08:54;;;;;;;12.47;9.47;;;;;;;5.04;100.00;98624.50;6126912;23;20164;-86
2023/10/29 06:11:30;;;;;;;22.87;11.97;;;;;;;5.12;100.00;98626.94;6104059;23;20713;-84
2023/10/29 06:14:02;;;;;;;16.57;11.20;;;;;;;5.20;100.00;98624.06;6080299;23;20164;-87
2023/10/29 06:16:33;;;;;;;27.27;9.80;;;;;;;5.26;100.00;98617.09;6104150;23;20215;-87
2023/10/29 06:19:05;;;;;;;21.13;9.83;;;;;;;5.34;100.00;98598.25;6127410;23;20160;-88
2023/10/29 06:21:43;;;;;;;15.90;9.17;;;;;;;5.40;100.00;98596.63;6102399;23;20175;-86
2023/10/29 06:24:14;;;;;;;16.20;9.10;;;;;;;5.46;100.00;98601.88;6104338;23;20278;-87
2023/10/29 06:26:43;;;;;;;12.47;9.50;;;;;;;5.52;100.00;98605.53;6102264;23;20191;-86
2023/10/29 06:29:16;;;;;;;12.60;9.80;;;;;;;5.64;100.00;98615.31;6102794;23;20220;-88
2023/10/29 06:31:47;;;;;;;28.23;11.73;;;;;;;5.52;100.00;98614.31;6103066;23;20194;-89
2023/10/29 06:34:17;;;;;;;32.53;11.13;;;;;;;5.49;100.00;98619.25;6102612;23;20164;-88
2023/10/29 06:36:46;;;;;;;16.30;8.33;;;;;;;5.60;100.00;98621.25;6102928;23;20194;-88
2023/10/29 06:39:14;;;;;;;28.73;16.70;;;;;;;5.70;100.00;98635.69;6102662;23;20159;-89
2023/10/29 06:41:42;;;;;;;21.63;17.70;;;;;;;5.73;100.00;98640.59;6102121;23;20176;-87
2023/10/29 06:44:11;;;;;;;20.47;12.97;;;;;;;5.96;100.00;98648.06;6102181;23;20678;-88
2023/10/29 06:46:39;;;;;;;13.50;11.17;;;;;;;6.15;100.00;98647.13;6102056;23;20179;-88
2023/10/29 06:49:11;;;;;;;13.90;7.47;;;;;;;6.26;100.00;98645.59;6078510;23;20172;-86
2023/10/29 06:51:49;;;;;;;12.80;7.57;;;;;;;6.24;100.00;98652.19;6103760;23;20183;-85
2023/10/29 06:54:17;;;;;;;15.20;8.70;;;;;;;6.29;100.00;98631.91;6078648;23;20170;-86
2023/10/29 06:56:49;;;;;;;11.97;7.50;;;;;;;6.01;100.00;98615.53;6102311;23;20190;-86
2023/10/29 06:59:18;;;;;;;10.83;7.10;;;;;;;5.91;100.00;98609.84;6101963;23;20202;-87
2023/10/29 07:01:50;;;;;;;12.90;9.03;;;;;;;5.99;100.00;98615.72;6078696;23;20218;-87
2023/10/29 07:04:21;;;;;;;12.40;9.13;;;;;;;6.13;100.00;98616.44;6079417;23;20177;-86
2023/10/29 07:06:52;;;;;;;11.60;7.27;;;;;;;6.23;100.00;98610.66;6079043;23;20244;-85
2023/10/29 07:09:28;;;;;;;13.90;7.20;;;;;;;6.24;100.00;98614.94;6125599;23;20177;-86
2023/10/29 07:11:56;;;;;;;17.50;6.47;;;;;;;6.23;100.00;98610.66;6101683;23;20187;-87
2023/10/29 07:14:27;;;;;;;13.60;7.00;;;;;;;6.20;100.00;98606.59;6102329;23;20198;-88
2023/10/29 07:16:56;;;;;;;19.43;6.23;;;;;;;6.01;100.00;98603.03;6101478;23;20495;-87
2023/10/29 07:19:24;;;;;;;15.60;8.30;;;;;;;6.06;100.00;98597.09;6102332;23;20171;-86
2023/10/29 07:21:52;;;;;;;17.90;7.23;;;;;;;6.25;100.00;98600.63;6101879;23;20172;-87
2023/10/29 07:24:23;;;;;;;11.70;9.03;;;;;;;6.46;100.00;98602.91;6101551;23;20279;-85
2023/10/29 07:26:50;;;;;;;15.00;7.47;;;;;;;6.66;100.00;98613.38;6126286;23;20167;-85
2023/10/29 07:29:24;;;;;;;7.73;7.03;;;;;;;6.74;100.00;98621.88;6102215;23;20178;-86
2023/10/29 07:31:52;;;;;;;9.67;7.70;;;;;;;6.81;100.00;98622.63;6101709;23;20201;-87
2023/10/29 07:34:20;;;;;;;8.67;7.77;;;;;;;7.04;100.00;98636.13;6125538;23;20179;-87
2023/10/29 07:36:56;;;;;;;11.80;7.57;;;;;;;7.24;100.00;98641.22;6101886;23;20176;-84
2023/10/29 07:39:27;;;;;;;11.13;7.20;;;;;;;7.38;100.00;98629.38;6079016;23;20258;-86
2023/10/29 07:41:55;;;;;;;13.27;7.10;;;;;;;7.47;100.00;98630.72;6125474;23;20163;-83
2023/10/29 07:44:32;;;;;;;10.60;7.13;;;;;;;7.51;100.00;98625.78;6103069;23;20175;-87
2023/10/29 07:47:08;;;;;;;17.67;7.40;;;;;;;7.46;100.00;98618.44;6125466;23;20229;-85
2023/10/29 07:49:37;;;;;;;13.93;7.10;;;;;;;7.61;100.00;98620.69;6125391;23;20166;-85
2023/10/29 07:52:05;;;;;;;9.03;7.17;;;;;;;7.74;100.00;98619.72;6125446;23;20187;-85
2023/10/29 07:54:36;;;;;;;11.57;6.00;;;;;;;7.74;100.00;98625.88;6102082;23;20167;-87
2023/10/29 07:57:09;;;;;;;7.83;7.10;;;;;;;7.83;100.00;98631.72;6102174;23;20175;-85
2023/10/29 07:59:43;;;;;;;16.67;7.33;;;;;;;7.94;100.00;98620.25;6101821;23;20189;-87
2023/10/29 08:02:11;;;;;;;9.43;6.67;;;;;;;8.01;100.00;98610.31;6125605;23;20170;-87
2023/10/29 08:04:40;;;;;;;9.00;6.87;;;;;;;8.14;100.00;98622.63;6077590;23;20225;-86
2023/10/29 08:07:08;;;;;;;10.13;7.07;;;;;;;8.24;100.00;98621.03;6101402;23;20204;-85
2023/10/29 08:09:40;;;;;;;9.63;6.27;;;;;;;8.31;100.00;98599.59;6101172;23;20174;-84
2023/10/29 08:12:08;;;;;;;12.53;6.60;;;;;;;8.44;100.00;98599.41;6125577;23;20188;-84
2023/10/29 08:14:36;;;;;;;10.17;6.57;;;;;;;8.57;100.00;98596.53;6077293;23;20171;-84
2023/10/29 08:17:05;;;;;;;7.40;6.70;;;;;;;8.71;100.00;98605.13;6126576;23;20246;-84
2023/10/29 08:19:36;;;;;;;6.37;5.77;;;;;;;8.89;100.00;98615.66;6077546;23;20168;-84
2023/10/29 08:22:07;;;;;;;7.13;6.43;;;;;;;9.11;100.00;98616.69;6101438;23;20192;-84
2023/10/29 08:24:35;;;;;;;7.97;6.13;;;;;;;9.22;100.00;98609.72;6100908;23;20194;-84
2023/10/29 08:27:07;;;;;;;8.60;5.57;;;;;;;9.10;100.00;98614.25;6080531;23;20163;-87
2023/10/29 08:29:43;;;;;;;6.40;5.83;;;;;;;9.23;100.00;98603.31;6078958;23;20172;-86
2023/10/29 08:32:12;;;;;;;6.00;5.50;;;;;;;9.41;100.00;98605.03;6104945;23;20266;-85
2023/10/29 08:34:40;;;;;;;7.17;6.47;;;;;;;9.39;100.00;98609.78;6078980;23;20167;-86
2023/10/29 08:37:11;;;;;;;9.47;8.63;;;;;;;9.57;100.00;98613.09;6103596;23;20183;-87
2023/10/29 08:39:40;;;;;;;10.67;6.73;;;;;;;9.42;100.00;98609.31;6102782;23;20175;-87
2023/10/29 08:42:10;;;;;;;8.73;6.83;;;;;;;9.39;100.00;98607.09;6126871;23;20168;-85
2023/10/29 08:44:44;;;;;;;26.13;23.50;;;;;;;9.34;100.00;98613.16;6126616;23;20254;-85
2023/10/29 08:47:15;;;;;;;8.97;8.07;;;;;;;9.46;100.00;98615.81;6079530;23;20242;-87
2023/10/29 08:49:45;;;;;;;8.07;7.27;;;;;;;9.70;100.00;98612.03;6102200;23;20183;-85
2023/10/29 08:52:15;;;;;;;30.67;27.83;;;;;;;9.53;100.00;98603.94;6126825;23;20184;-84
2023/10/29 08:54:47;;;;;;;27.53;25.20;;;;;;;9.31;100.00;98596.78;6102022;23;20650;-86
2023/10/29 08:57:19;;;;;;;14.93;7.27;;;;;;;9.24;100.00;98592.38;6103487;23;20619;-86
2023/10/29 08:59:51;;;;;;;18.10;16.60;;;;;;;9.57;100.00;98591.72;6127459;23;20661;-86
2023/10/29 09:02:25;;;;;;;7.27;6.17;;;;;;;9.47;100.00;98590.72;6080645;23;20151;-86
2023/10/29 09:04:57;;;;;;;14.10;7.13;;;;;;;9.18;100.00;98585.31;6126371;23;20183;-87
2023/10/29 09:07:28;;;;;;;10.70;6.90;;;;;;;9.14;100.00;98589.53;6127529;23;20195;-86
2023/10/29 09:10:02;;;;;;;7.37;6.57;;;;;;;9.44;100.00;98594.66;6126191;23;20250;-86
2023/10/29 09:12:31;;;;;;;9.90;6.73;;;;;;;9.63;100.00;98596.13;6126684;23;20198;-84
2023/10/29 09:14:59;;;;;;;8.03;6.20;;;;;;;9.91;100.00;98589.94;6078348;23;20172;-85
2023/10/29 09:17:28;;;;;;;6.97;6.27;;;;;;;10.17;100.00;98590.44;6102672;23;20282;-85
2023/10/29 09:19:59;;;;;;;7.53;6.83;;;;;;;10.30;100.00;98582.09;6102221;23;20175;-85
2023/10/29 09:22:30;;;;;;;7.83;6.57;;;;;;;10.40;100.00;98583.06;6127702;23;20223;-85
2023/10/29 09:25:04;;;;;;;6.63;5.93;;;;;;;10.50;100.00;98596.59;6127542;23;20156;-84
2023/10/29 09:27:32;;;;;;;6.73;6.13;;;;;;;10.59;100.00;98589.75;6102620;23;20496;-84
2023/10/29 09:30:06;;;;;;;6.93;6.23;;;;;;;10.62;100.00;98591.16;6125884;23;20172;-85
2023/10/29 09:32:38;;;;;;;7.20;6.50;;;;;;;10.64;100.00;98583.69;6102976;23;20191;-86
2023/10/29 09:35:08;;;;;;;7.37;6.67;;;;;;;10.65;100.00;98587.16;6126274;23;20188;-86
2023/10/29 09:37:37;;;;;;;8.30;7.50;;;;;;;10.68;100.00;98576.78;6079488;23;20202;-84
2023/10/29 09:40:15;;;;;;;7.03;6.40;;;;;;;10.80;100.00;98572.13;6081346;23;20190;-84
2023/10/29 09:42:53;;;;;;;7.73;6.93;;;;;;;10.83;100.00;98590.38;6078879;23;20191;-83
2023/10/29 09:45:25;;;;;;;8.07;7.30;;;;;;;10.86;100.00;98589.91;6078557;23;20222;-85
2023/10/29 09:47:54;;;;;;;7.70;6.33;;;;;;;10.69;100.00;98581.06;6102188;23;20199;-85
2023/10/29 09:50:24;;;;;;;7.17;6.47;;;;;;;10.73;100.00;98579.53;6101746;23;20172;-87
2023/10/29 09:52:56;;;;;;;7.97;7.17;;;;;;;10.77;100.00;98579.88;6102146;23;20202;-85
2023/10/29 09:55:31;;;;;;;7.60;6.90;;;;;;;10.93;100.00;98587.84;6079018;23;20172;-86
2023/10/29 09:57:59;;;;;;;7.63;6.93;;;;;;;11.07;100.00;98590.19;6103243;23;20205;-85
2023/10/29 10:00:31;;;;;;;7.90;7.13;;;;;;;10.95;100.00;98571.53;6079664;23;20215;-84
2023/10/29 10:03:12;;;;;;;18.97;17.17;;;;;;;11.08;100.00;98583.75;6104843;23;20231;-84
2023/10/29 10:05:42;;;;;;;10.83;9.93;;;;;;;11.18;100.00;98586.59;6101584;23;20176;-84
2023/10/29 10:08:20;;;;;;;9.50;8.60;;;;;;;11.24;100.00;98582.91;6102138;23;20176;-84
2023/10/29 10:10:52;;;;;;;8.20;7.40;;;;;;;11.27;100.00;98574.38;6103753;23;20187;-83
2023/10/29 10:13:44;;;;;;;12.97;11.77;;;;;;;11.25;100.00;98579.16;6101585;23;20175;-84
2023/10/29 10:19:13;;;;;;;14.40;13.00;;;;;;;11.06;100.00;98580.53;6125988;23;20228;-86
2023/10/29 10:21:43;;;;;;;16.30;14.70;;;;;;;10.96;100.00;98571.28;6078473;23;20176;-83
2023/10/29 10:24:12;;;;;;;8.57;7.77;;;;;;;10.75;100.00;98557.84;6101539;23;20650;-85
2023/10/29 10:26:43;;;;;;;7.70;6.90;;;;;;;10.97;100.00;98562.19;6077245;23;20197;-84
2023/10/29 10:29:12;;;;;;;7.70;6.90;;;;;;;10.98;100.00;98550.41;6078203;23;20199;-85
2023/10/29 10:31:41;;;;;;;8.03;7.33;;;;;;;10.69;100.00;98545.44;6078004;23;20694;-84
2023/10/29 10:34:18;;;;;;;9.17;8.30;;;;;;;10.72;100.00;98553.00;6077629;23;20231;-84
2023/10/29 10:36:49;;;;;;;8.23;7.53;;;;;;;10.85;100.00;98556.13;6101335;23;20172;-84
2023/10/29 10:39:23;;;;;;;9.47;8.63;;;;;;;10.83;100.00;98555.56;6101457;23;20247;-84
2023/10/29 10:41:52;;;;;;;18.07;16.27;;;;;;;10.84;100.00;98561.72;6100038;23;20680;-84
2023/10/29 10:44:24;;;;;;;9.93;8.97;;;;;;;10.79;100.00;98558.97;6102190;23;20199;-84
2023/10/29 10:46:58;;;;;;;12.90;11.70;;;;;;;11.03;100.00;98552.34;6079626;23;20167;-85
2023/10/29 10:49:31;;;;;;;9.60;8.70;;;;;;;11.15;100.00;98547.66;6101878;23;20164;-85
2023/10/29 10:52:03;;;;;;;9.50;7.80;;;;;;;11.34;100.00;98538.25;6125589;23;20206;-84
2023/10/29 10:54:32;;;;;;;8.20;7.30;;;;;;;11.60;100.00;98533.19;6101541;23;20175;-83
2023/10/29 10:57:06;;;;;;;9.00;8.10;;;;;;;11.83;100.00;98532.91;6101386;23;20168;-84
2023/10/29 10:59:40;;;;;;;8.40;7.60;;;;;;;12.02;100.00;98530.66;6101102;23;20168;-84
2023/10/29 11:02:14;;;;;;;8.27;7.47;;;;;;;12.15;100.00;98531.03;6079376;23;20657;-85
2023/10/29 11:04:46;;;;;;;8.70;7.90;;;;;;;12.11;100.00;98516.50;6101818;23;20193;-83
2023/10/29 11:07:18;;;;;;;7.40;6.80;;;;;;;12.21;100.00;98503.19;6124919;23;20215;-84
2023/10/29 11:09:49;;;;;;;7.77;7.07;;;;;;;12.23;100.00;98498.34;6101781;23;20214;-84
2023/10/29 11:12:20;;;;;;;7.80;7.10;;;;;;;12.48;100.00;98486.97;6101350;23;20188;-84
2023/10/29 11:15:20;;;;;;;8.33;7.47;;;;;;;12.60;100.00;98482.19;6100816;23;20164;-85
2023/10/29 11:18:02;;;;;;;8.70;7.80;;;;;;;12.45;100.00;98492.88;6081004;23;20171;-83
2023/10/29 11:20:41;;;;;;;9.87;8.87;;;;;;;12.61;100.00;98488.38;6101269;23;20180;-84
2023/10/29 11:23:23;;;;;;;8.40;7.70;;;;;;;12.72;100.00;98476.63;6124464;23;20228;-84
2023/10/29 11:26:11;;;;;;;7.77;7.07;;;;;;;12.56;100.00;98466.84;6076851;23;20172;-84
2023/10/29 11:28:43;;;;;;;8.03;7.27;;;;;;;12.67;100.00;98458.59;6104689;23;20172;-85
2023/10/29 11:31:19;;;;;;;8.20;6.83;;;;;;;12.67;100.00;98455.91;6100291;23;20172;-84
2023/10/29 11:34:06;;;;;;;7.93;7.23;;;;;;;12.60;100.00;98459.88;6100221;23;20180;-83
2023/10/29 11:36:42;;;;;;;7.67;6.87;;;;;;;12.75;100.00;98458.09;6126034;23;20580;-83
2023/10/29 11:39:15;;;;;;;7.40;6.70;;;;;;;12.92;100.00;98455.22;6101231;23;20168;-83
2023/10/29 11:41:46;;;;;;;7.63;6.93;;;;;;;12.89;100.00;98461.13;6125797;23;20168;-84
2023/10/29 11:44:29;;;;;;;7.27;6.57;;;;;;;13.09;100.00;98469.25;6100735;23;20309;-83
2023/10/29 11:47:01;;;;;;;7.17;6.47;;;;;;;13.16;100.00;98471.72;6125725;23;20214;-83
2023/10/29 11:49:45;;;;;;;7.40;6.67;;;;;;;13.16;100.00;98479.78;6124390;23;20176;-83
2023/10/29 11:52:14;;;;;;;7.23;6.63;;;;;;;13.16;100.00;98480.59;6125801;23;20179;-83